createdAt,value
2022-09-30T00:01:49.394Z,99937.81
2022-09-30T00:04:20.704Z,99905.69
2022-09-30T00:06:49.507Z,99964.31
2022-09-30T00:09:18.033Z,99955.41
2022-09-30T00:11:47.549Z,99958.94
2022-09-30T00:14:19.066Z,99948.47
2022-09-30T00:16:49.236Z,99945.97
2022-09-30T00:19:17.847Z,99946.53
2022-09-30T00:21:46.293Z,99945.88
2022-09-30T00:24:14.814Z,99953.94
2022-09-30T00:26:43.190Z,99946.06
2022-09-30T00:29:12.370Z,99948.94
2022-09-30T00:31:40.975Z,99922.03
2022-09-30T00:34:11.666Z,99948.84
2022-09-30T00:36:44.523Z,99948.84
2022-09-30T00:39:16.351Z,99948.44
2022-09-30T00:41:45.652Z,99925.47
2022-09-30T00:44:45.619Z,99961.66
2022-09-30T00:47:46.259Z,99967.03
2022-09-30T00:50:27.990Z,99960.81
2022-09-30T00:53:01.877Z,99963.78
2022-09-30T00:55:37.897Z,99974.34
2022-09-30T00:58:09.093Z,99965.63
2022-09-30T01:00:41.739Z,99968.69
2022-09-30T01:03:13.844Z,99974.47
2022-09-30T01:05:44.115Z,99981.91
2022-09-30T01:08:12.753Z,99973.47
2022-09-30T01:10:41.044Z,99986.06
2022-09-30T01:13:09.299Z,99983.16
2022-09-30T01:15:49.743Z,99990.03
2022-09-30T01:18:26.244Z,99994.38
2022-09-30T01:21:42.587Z,99987.28
2022-09-30T01:24:40.299Z,99994.31
2022-09-30T01:27:41.430Z,99988.47
2022-09-30T01:30:14.551Z,99982.28
2022-09-30T01:33:05.743Z,99974.84
2022-09-30T01:35:44.225Z,99972.81
2022-09-30T01:38:18.466Z,99970.56
2022-09-30T01:40:52.094Z,99970.78
2022-09-30T01:43:32.223Z,99971.16
2022-09-30T01:46:06.944Z,99939.13
2022-09-30T01:48:47.982Z,99973.84
2022-09-30T01:51:23.005Z,99971.16
2022-09-30T01:53:56.862Z,99935.69
2022-09-30T01:56:35.838Z,99978.00
2022-09-30T01:59:10.061Z,99976.34
2022-09-30T02:01:43.883Z,99981.25
2022-09-30T02:04:19.836Z,99984.13
2022-09-30T02:06:53.034Z,99986.53
2022-09-30T02:09:28.029Z,99976.19
2022-09-30T02:12:00.362Z,99979.25
2022-09-30T02:14:34.347Z,99983.13
2022-09-30T02:17:10.989Z,99933.94
2022-09-30T02:19:44.790Z,99959.06
2022-09-30T02:22:17.761Z,99996.38
2022-09-30T02:24:48.684Z,99980.78
2022-09-30T02:27:22.405Z,100006.13
2022-09-30T02:29:57.208Z,100011.84
2022-09-30T02:32:29.014Z,100013.91
2022-09-30T02:35:03.059Z,100013.06
2022-09-30T02:37:35.769Z,100013.59
2022-09-30T02:40:10.811Z,100018.16
2022-09-30T02:42:42.091Z,100016.00
2022-09-30T02:45:13.314Z,100018.03
2022-09-30T02:47:58.330Z,100021.09
2022-09-30T02:50:33.244Z,100022.22
2022-09-30T02:53:15.592Z,100027.28
2022-09-30T02:56:02.423Z,100024.31
2022-09-30T02:58:33.866Z,100014.59
2022-09-30T03:01:02.331Z,100010.41
2022-09-30T03:03:34.295Z,100008.94
2022-09-30T03:06:04.121Z,100007.72
2022-09-30T03:08:32.272Z,100011.91
2022-09-30T03:11:00.827Z,99986.97
2022-09-30T03:14:10.987Z,100007.66
2022-09-30T03:16:55.131Z,100004.50
2022-09-30T03:19:42.392Z,100000.16
2022-09-30T03:22:44.907Z,99983.66
2022-09-30T03:25:25.283Z,100012.44
2022-09-30T03:28:06.303Z,100015.13
2022-09-30T03:30:38.761Z,100006.91
2022-09-30T03:33:11.684Z,99986.53
2022-09-30T03:35:50.324Z,100012.44
2022-09-30T03:38:34.107Z,100005.03
2022-09-30T03:41:08.949Z,100010.59
2022-09-30T03:43:44.293Z,100013.66
2022-09-30T03:46:21.484Z,100010.13
2022-09-30T03:48:52.389Z,100013.38
2022-09-30T03:51:22.051Z,100007.22
2022-09-30T03:53:53.416Z,100014.22
2022-09-30T03:56:26.701Z,100006.38
2022-09-30T03:58:55.127Z,100020.13
2022-09-30T04:01:28.677Z,99995.13
2022-09-30T04:04:00.570Z,100027.84
2022-09-30T04:06:28.743Z,100034.56
2022-09-30T04:08:58.433Z,100033.88
2022-09-30T04:11:26.787Z,100036.94
2022-09-30T04:13:55.055Z,100041.63
2022-09-30T04:16:23.335Z,100039.78
2022-09-30T04:18:52.320Z,100037.91
2022-09-30T04:21:20.605Z,100039.75
2022-09-30T04:23:48.832Z,100041.78
2022-09-30T04:26:20.627Z,100042.44
2022-09-30T04:28:49.103Z,100044.78
2022-09-30T04:31:21.366Z,100048.94
2022-09-30T04:33:50.778Z,100053.66
2022-09-30T04:36:19.239Z,100051.34
2022-09-30T04:38:47.524Z,100047.31
2022-09-30T04:41:17.459Z,100057.34
2022-09-30T04:43:48.604Z,100019.28
2022-09-30T04:46:17.714Z,100058.22
2022-09-30T04:48:46.580Z,100058.94
2022-09-30T04:51:16.125Z,100019.88
2022-09-30T04:53:44.814Z,100064.19
2022-09-30T04:56:13.645Z,100068.53
2022-09-30T04:58:41.982Z,100064.56
2022-09-30T05:01:13.315Z,100071.47
2022-09-30T05:03:43.454Z,100045.25
2022-09-30T05:06:12.636Z,100066.13
2022-09-30T05:08:45.743Z,100079.06
2022-09-30T05:11:18.753Z,100005.75
2022-09-30T05:13:48.346Z,100084.94
2022-09-30T05:16:18.530Z,100064.72
2022-09-30T05:18:47.289Z,100093.16
2022-09-30T05:21:16.949Z,100090.66
2022-09-30T05:23:45.348Z,100101.75
2022-09-30T05:26:14.267Z,100097.28
2022-09-30T05:28:42.969Z,100113.66
2022-09-30T05:31:13.702Z,100113.50
2022-09-30T05:33:43.433Z,100111.50
2022-09-30T05:36:15.405Z,100116.06
2022-09-30T05:38:44.049Z,100044.88
2022-09-30T05:41:15.613Z,100119.97
2022-09-30T05:43:47.822Z,100086.22
2022-09-30T05:46:16.477Z,100133.56
2022-09-30T05:48:46.907Z,100133.56
2022-09-30T05:51:15.510Z,100124.88
2022-09-30T05:53:44.427Z,100131.22
2022-09-30T05:56:13.321Z,100156.50
2022-09-30T05:58:42.261Z,100141.25
2022-09-30T06:01:14.036Z,100116.34
2022-09-30T06:03:43.478Z,100163.03
2022-09-30T06:06:13.703Z,100158.88
2022-09-30T06:08:43.706Z,100172.81
2022-09-30T06:11:13.744Z,100168.63
2022-09-30T06:13:44.510Z,100174.81
2022-09-30T06:16:14.015Z,100181.00
2022-09-30T06:18:42.549Z,100183.50
2022-09-30T06:21:14.471Z,100156.75
2022-09-30T06:23:43.209Z,100120.94
2022-09-30T06:26:13.524Z,100158.03
2022-09-30T06:28:41.976Z,100201.22
2022-09-30T06:31:11.458Z,100197.84
2022-09-30T06:33:39.992Z,100205.03
2022-09-30T06:36:08.217Z,100206.38
2022-09-30T06:38:40.079Z,100207.22
2022-09-30T06:41:10.947Z,100201.66
2022-09-30T06:43:55.476Z,100224.91
2022-09-30T06:46:30.666Z,100214.03
2022-09-30T06:49:22.673Z,100210.81
2022-09-30T06:51:49.561Z,100236.59
2022-09-30T06:54:19.522Z,100240.63
2022-09-30T06:56:48.723Z,100219.50
2022-09-30T06:59:17.946Z,100246.16
2022-09-30T07:01:46.628Z,100249.13
2022-09-30T07:04:15.056Z,100229.56
2022-09-30T07:06:43.967Z,100248.78
2022-09-30T07:09:13.014Z,100257.47
2022-09-30T07:11:43.918Z,100264.34
2022-09-30T07:14:13.546Z,100264.50
2022-09-30T07:16:41.994Z,100268.69
2022-09-30T07:19:12.839Z,100271.38
2022-09-30T07:21:41.122Z,100257.16
2022-09-30T07:24:09.729Z,100278.00
2022-09-30T07:26:38.236Z,100285.72
2022-09-30T07:29:08.225Z,100289.38
2022-09-30T07:31:36.706Z,100289.19
2022-09-30T07:34:07.640Z,100292.38
2022-09-30T07:36:37.969Z,100298.22
2022-09-30T07:39:11.179Z,100256.59
2022-09-30T07:41:41.366Z,100254.56
2022-09-30T07:44:15.229Z,100259.03
2022-09-30T07:46:45.002Z,100303.00
2022-09-30T07:49:16.073Z,100299.53
2022-09-30T07:51:46.320Z,100312.56
2022-09-30T07:54:16.263Z,100317.41
2022-09-30T07:59:37.785Z,100274.22
2022-09-30T08:02:07.486Z,100327.47
2022-09-30T08:04:38.214Z,100336.31
2022-09-30T08:07:11.042Z,100335.28
2022-09-30T08:09:41.080Z,100335.84
2022-09-30T08:12:10.096Z,100338.84
2022-09-30T08:14:39.738Z,100352.31
2022-09-30T08:17:08.070Z,100360.59
2022-09-30T08:19:36.300Z,100364.06
2022-09-30T08:22:06.631Z,100371.47
2022-09-30T08:24:35.142Z,100365.66
2022-09-30T08:27:03.525Z,100368.69
2022-09-30T08:32:21.496Z,100367.88
2022-09-30T08:34:49.902Z,100372.03
2022-09-30T08:37:18.507Z,100377.38
2022-09-30T08:39:48.534Z,100386.00
2022-09-30T08:42:37.988Z,100389.09
2022-09-30T08:45:18.438Z,100394.50
2022-09-30T08:47:58.484Z,100374.09
2022-09-30T08:50:34.774Z,100391.16
2022-09-30T08:53:06.978Z,100396.66
2022-09-30T08:55:41.401Z,100396.19
2022-09-30T08:58:19.485Z,100397.47
2022-09-30T09:00:49.429Z,100394.88
2022-09-30T09:03:20.597Z,100396.44
2022-09-30T09:05:55.980Z,100360.94
2022-09-30T09:08:31.609Z,100412.69
2022-09-30T09:11:05.989Z,100408.97
2022-09-30T09:13:51.928Z,100412.91
2022-09-30T09:16:28.471Z,100414.91
2022-09-30T09:19:07.553Z,100418.06
2022-09-30T09:21:46.233Z,100413.09
2022-09-30T09:24:18.254Z,100402.91
2022-09-30T09:26:47.810Z,100420.41
2022-09-30T09:29:33.853Z,100422.13
2022-09-30T09:32:03.760Z,100423.59
2022-09-30T09:34:36.990Z,100420.25
2022-09-30T09:37:16.836Z,100429.22
2022-09-30T09:40:04.743Z,100430.28
2022-09-30T09:42:42.786Z,100435.06
2022-09-30T09:45:19.673Z,100439.63
2022-09-30T09:47:52.314Z,100449.22
2022-09-30T09:50:28.334Z,100441.53
2022-09-30T09:53:19.340Z,100446.75
2022-09-30T09:55:47.575Z,100453.38
2022-09-30T09:58:17.516Z,100453.19
2022-09-30T10:01:07.538Z,100459.44
2022-09-30T10:03:38.278Z,100455.25
2022-09-30T10:06:09.407Z,100456.09
2022-09-30T10:08:39.894Z,100454.03
2022-09-30T10:11:19.230Z,100450.94
2022-09-30T10:13:48.233Z,100455.28
2022-09-30T10:16:30.907Z,100458.63
2022-09-30T10:19:00.236Z,100456.38
2022-09-30T10:21:31.237Z,100459.94
2022-09-30T10:23:59.982Z,100450.03
2022-09-30T10:26:29.640Z,100449.66
2022-09-30T10:28:59.725Z,100459.72
2022-09-30T10:31:31.315Z,100452.22
2022-09-30T10:34:04.477Z,100417.41
2022-09-30T10:36:36.665Z,100447.84
2022-09-30T10:39:08.589Z,100447.84
2022-09-30T10:41:39.082Z,100450.56
2022-09-30T10:44:15.120Z,100452.66
2022-09-30T10:46:45.697Z,100459.53
2022-09-30T10:49:27.457Z,100462.47
2022-09-30T10:51:57.967Z,100461.41
2022-09-30T10:54:45.444Z,100461.19
2022-09-30T10:57:17.260Z,100460.56
2022-09-30T10:59:48.105Z,100472.66
2022-09-30T11:02:27.439Z,100464.53
2022-09-30T11:05:04.242Z,100466.59
2022-09-30T11:07:41.328Z,100470.38
2022-09-30T11:10:26.846Z,100472.22
2022-09-30T11:13:01.485Z,100474.94
2022-09-30T11:15:34.029Z,100466.34
2022-09-30T11:18:08.282Z,100469.25
2022-09-30T11:20:43.154Z,100465.84
2022-09-30T11:23:20.251Z,100478.13
2022-09-30T11:25:55.409Z,100448.13
2022-09-30T11:28:46.909Z,100489.03
2022-09-30T11:31:28.256Z,100486.72
2022-09-30T11:34:10.599Z,100499.78
2022-09-30T11:36:46.993Z,100497.03
2022-09-30T11:39:50.170Z,100502.81
2022-09-30T11:42:31.920Z,100414.81
2022-09-30T11:45:09.105Z,100512.69
2022-09-30T11:47:57.819Z,100514.72
2022-09-30T11:50:51.116Z,100512.59
2022-09-30T11:53:28.145Z,100522.84
2022-09-30T11:56:10.195Z,100507.97
2022-09-30T11:58:44.219Z,100506.41
2022-09-30T12:01:27.065Z,100512.13
2022-09-30T12:04:02.573Z,100499.66
2022-09-30T12:06:36.112Z,100497.84
2022-09-30T12:09:16.584Z,100487.25
2022-09-30T12:11:52.210Z,100463.06
2022-09-30T12:14:27.196Z,100496.03
2022-09-30T12:16:57.842Z,100499.78
2022-09-30T12:19:31.475Z,100501.44
2022-09-30T12:22:06.804Z,100508.34
2022-09-30T12:24:38.390Z,100510.25
2022-09-30T12:27:14.128Z,100506.84
2022-09-30T12:30:08.029Z,100512.28
2022-09-30T12:33:16.526Z,100521.84
2022-09-30T12:36:16.161Z,100513.88
2022-09-30T12:39:26.573Z,100527.59
2022-09-30T12:42:24.907Z,100527.78
2022-09-30T12:45:25.510Z,100526.84
2022-09-30T12:47:56.794Z,100509.00
2022-09-30T12:50:35.305Z,100529.22
2022-09-30T12:53:13.459Z,100542.22
2022-09-30T12:55:43.507Z,100527.59
2022-09-30T12:58:26.214Z,100530.44
2022-09-30T13:01:06.881Z,100538.69
2022-09-30T13:03:50.993Z,100549.88
2022-09-30T13:06:21.286Z,100549.06
2022-09-30T13:09:09.700Z,100539.53
2022-09-30T13:11:43.296Z,100550.97
2022-09-30T13:14:33.902Z,100545.38
2022-09-30T13:17:22.758Z,100553.50
2022-09-30T13:19:52.724Z,100557.22
2022-09-30T13:23:00.029Z,100554.53
2022-09-30T13:25:28.678Z,100560.31
2022-09-30T13:28:32.243Z,100565.72
2022-09-30T13:31:15.859Z,100564.44
2022-09-30T13:33:49.168Z,100568.09
2022-09-30T13:36:28.571Z,100572.22
2022-09-30T13:39:24.313Z,100573.19
2022-09-30T13:42:10.217Z,100573.38
2022-09-30T13:44:57.612Z,100577.31
2022-09-30T13:47:31.216Z,100574.16
2022-09-30T13:50:07.556Z,100575.19
2022-09-30T13:52:39.870Z,100576.63
2022-09-30T13:55:15.452Z,100574.31
2022-09-30T13:57:52.449Z,100584.09
2022-09-30T14:00:22.485Z,100579.06
2022-09-30T14:03:25.298Z,100589.91
2022-09-30T14:06:16.319Z,100594.50
2022-09-30T14:09:19.913Z,100595.78
2022-09-30T14:12:23.260Z,100589.31
2022-09-30T14:15:08.957Z,100596.16
2022-09-30T14:18:00.418Z,100595.13
2022-09-30T14:20:40.313Z,100600.78
2022-09-30T14:23:16.484Z,100611.88
2022-09-30T14:25:54.070Z,100600.47
2022-09-30T14:28:32.087Z,100614.63
2022-09-30T14:31:09.490Z,100605.88
2022-09-30T14:33:39.645Z,100604.03
2022-09-30T14:36:15.218Z,100600.94
2022-09-30T14:38:48.412Z,100616.31
2022-09-30T14:41:20.827Z,100608.22
2022-09-30T14:43:53.202Z,100607.44
2022-09-30T14:46:30.414Z,100614.78
2022-09-30T14:49:04.622Z,100611.28
2022-09-30T14:51:43.756Z,100607.19
2022-09-30T14:54:22.033Z,100608.25
2022-09-30T14:56:51.066Z,100610.59
2022-09-30T14:59:20.907Z,100600.81
2022-09-30T15:01:55.513Z,100606.69
2022-09-30T15:04:27.572Z,100604.22
2022-09-30T15:06:56.828Z,100605.94
2022-09-30T15:09:30.985Z,100607.63
2022-09-30T15:12:05.194Z,100613.44
2022-09-30T15:14:34.102Z,100610.91
2022-09-30T15:17:06.086Z,100611.56
2022-09-30T15:19:43.326Z,100624.69
2022-09-30T15:22:14.502Z,100620.97
2022-09-30T15:24:45.229Z,100622.03
2022-09-30T15:27:20.807Z,100628.91
2022-09-30T15:29:55.779Z,100624.94
2022-09-30T15:32:27.777Z,100620.50
2022-09-30T15:34:58.751Z,100625.88
2022-09-30T15:37:33.430Z,100632.69
2022-09-30T15:40:21.407Z,100640.16
2022-09-30T15:43:00.316Z,100626.16
2022-09-30T15:45:40.237Z,100602.34
2022-09-30T15:48:33.494Z,100633.06
2022-09-30T15:51:02.441Z,100632.78
2022-09-30T15:53:32.690Z,100630.28
2022-09-30T15:56:17.768Z,100640.28
2022-09-30T15:58:56.619Z,100647.81
2022-09-30T16:01:31.459Z,100648.47
2022-09-30T16:04:02.921Z,100647.94
2022-09-30T16:06:35.519Z,100648.00
2022-09-30T16:09:08.625Z,100650.97
2022-09-30T16:11:42.036Z,100646.59
2022-09-30T16:14:18.823Z,100644.91
2022-09-30T16:16:53.823Z,100635.75
2022-09-30T16:19:24.505Z,100635.75
2022-09-30T16:21:54.857Z,100640.53
2022-09-30T16:24:48.632Z,100645.09
2022-09-30T16:27:31.361Z,100659.03
2022-09-30T16:30:01.336Z,100651.75
2022-09-30T16:32:34.038Z,100578.47
2022-09-30T16:35:02.279Z,100656.25
2022-09-30T16:37:30.492Z,100657.69
2022-09-30T16:40:10.409Z,100666.38
2022-09-30T16:42:39.989Z,100680.69
2022-09-30T16:45:08.994Z,100682.03
2022-09-30T16:47:37.221Z,100676.13
2022-09-30T16:50:16.888Z,100678.09
2022-09-30T16:52:45.155Z,100681.09
2022-09-30T16:55:13.400Z,100691.09
2022-09-30T16:57:44.207Z,100700.41
2022-09-30T17:00:18.098Z,100703.09
2022-09-30T17:02:48.226Z,100708.44
2022-09-30T17:05:19.856Z,100720.22
2022-09-30T17:07:53.501Z,100719.94
2022-09-30T17:10:24.513Z,100701.69
2022-09-30T17:12:54.314Z,100729.25
2022-09-30T17:15:23.152Z,100730.84
2022-09-30T17:17:51.723Z,100737.00
2022-09-30T17:20:19.951Z,100751.72
2022-09-30T17:22:48.632Z,100743.25
2022-09-30T17:25:17.231Z,100739.25
2022-09-30T17:27:49.026Z,100765.06
2022-09-30T17:30:19.412Z,100767.84
2022-09-30T17:32:47.834Z,100766.72
2022-09-30T17:35:16.817Z,100769.16
2022-09-30T17:37:46.607Z,100778.44
2022-09-30T17:40:32.615Z,100789.44
2022-09-30T17:43:11.177Z,100806.00
2022-09-30T17:45:44.107Z,100809.72
2022-09-30T17:48:13.447Z,100812.59
2022-09-30T17:50:44.339Z,100818.69
2022-09-30T17:53:14.282Z,100818.22
2022-09-30T17:55:43.635Z,100825.66
2022-09-30T17:58:12.541Z,100831.06
2022-09-30T18:00:42.527Z,100835.78
2022-09-30T18:03:12.175Z,100837.03
2022-09-30T18:05:40.488Z,100841.56
2022-09-30T18:08:08.846Z,100839.91
2022-09-30T18:10:38.640Z,100847.16
2022-09-30T18:13:07.204Z,100855.06
2022-09-30T18:15:38.950Z,100849.66
2022-09-30T18:18:09.051Z,100864.38
2022-09-30T18:20:37.421Z,100868.13
2022-09-30T18:23:05.946Z,100873.03
2022-09-30T18:25:35.055Z,100868.38
2022-09-30T18:28:03.898Z,100877.28
2022-09-30T18:30:32.290Z,100882.59
2022-09-30T18:33:00.737Z,100875.91
2022-09-30T18:35:30.321Z,100880.28
2022-09-30T18:37:59.923Z,100888.72
2022-09-30T18:40:31.750Z,100891.97
2022-09-30T18:43:02.796Z,100884.03
2022-09-30T18:45:32.724Z,100892.13
2022-09-30T18:48:02.136Z,100892.31
2022-09-30T18:50:32.795Z,100893.50
2022-09-30T18:53:06.799Z,100897.78
2022-09-30T18:55:38.594Z,100893.75
2022-09-30T18:58:06.925Z,100901.34
2022-09-30T19:00:35.252Z,100895.97
2022-09-30T19:03:03.505Z,100901.03
2022-09-30T19:05:33.061Z,100900.88
2022-09-30T19:08:01.330Z,100912.84
2022-09-30T19:10:29.784Z,100913.38
2022-09-30T19:13:00.032Z,100919.94
2022-09-30T19:15:28.270Z,100922.97
2022-09-30T19:17:57.594Z,100929.72
2022-09-30T19:20:26.068Z,100929.03
2022-09-30T19:22:55.732Z,100929.22
2022-09-30T19:25:23.916Z,100929.03
2022-09-30T19:27:53.122Z,100939.81
2022-09-30T19:30:24.133Z,100941.19
2022-09-30T19:32:59.407Z,100947.91
2022-09-30T19:35:38.386Z,100947.13
2022-09-30T19:38:10.909Z,100949.16
2022-09-30T19:40:39.091Z,100969.53
2022-09-30T19:43:08.309Z,100969.00
2022-09-30T19:45:36.633Z,100965.47
2022-09-30T19:48:05.088Z,100976.75
2022-09-30T19:50:35.887Z,100992.25
2022-09-30T19:53:04.224Z,100995.09
2022-09-30T19:55:46.144Z,101000.19
2022-09-30T19:58:17.596Z,101008.25
2022-09-30T20:00:53.812Z,101014.13
2022-09-30T20:03:22.476Z,101020.00
2022-09-30T20:05:51.315Z,101025.72
2022-09-30T20:08:19.624Z,101032.44
2022-09-30T20:10:49.168Z,101038.69
2022-09-30T20:13:17.392Z,101035.47
2022-09-30T20:15:53.468Z,101039.47
2022-09-30T20:18:22.143Z,101037.31
2022-09-30T20:20:50.580Z,101040.63
2022-09-30T20:23:19.396Z,101044.28
2022-09-30T20:25:51.485Z,101055.16
2022-09-30T20:28:20.730Z,101048.78
2022-09-30T20:30:49.606Z,101054.63
2022-09-30T20:33:19.276Z,101060.16
2022-09-30T20:35:48.163Z,101052.56
2022-09-30T20:38:24.927Z,101033.34
2022-09-30T20:40:59.502Z,101059.25
2022-09-30T20:43:30.300Z,101063.59
2022-09-30T20:46:01.524Z,101062.69
2022-09-30T20:48:33.718Z,101067.22
2022-09-30T20:51:02.104Z,101064.44
2022-09-30T20:53:30.243Z,101068.06
2022-09-30T20:56:01.509Z,101069.84
2022-09-30T20:58:29.774Z,101063.19
2022-09-30T21:01:03.338Z,101067.00
2022-09-30T21:03:36.075Z,101082.75
2022-09-30T21:06:05.192Z,101079.75
2022-09-30T21:08:33.376Z,101081.59
2022-09-30T21:11:04.695Z,101082.59
2022-09-30T21:13:33.554Z,101088.88
2022-09-30T21:16:04.112Z,101094.25
2022-09-30T21:18:32.731Z,101092.34
2022-09-30T21:21:03.392Z,101088.28
2022-09-30T21:23:34.792Z,101084.22
2022-09-30T21:26:06.508Z,101094.41
2022-09-30T21:28:36.140Z,101097.94
2022-09-30T21:31:06.474Z,101102.00
2022-09-30T21:33:35.707Z,101108.06
2022-09-30T21:36:06.111Z,101105.69
2022-09-30T21:38:35.080Z,101103.84
2022-09-30T21:41:07.284Z,101106.13
2022-09-30T21:43:37.475Z,101094.91
2022-09-30T21:46:07.590Z,101124.78
2022-09-30T21:48:36.808Z,101126.50
2022-09-30T21:51:06.748Z,101130.56
2022-09-30T21:53:35.415Z,101089.38
2022-09-30T21:56:05.770Z,101138.09
2022-09-30T21:58:34.387Z,101139.94
2022-09-30T22:01:06.806Z,101143.59
2022-09-30T22:03:38.762Z,101145.31
2022-09-30T22:06:09.292Z,101142.75
2022-09-30T22:08:40.326Z,101147.44
2022-09-30T22:11:11.510Z,101151.47
2022-09-30T22:13:40.857Z,101152.75
2022-09-30T22:16:09.947Z,101154.75
2022-09-30T22:18:38.619Z,101163.38
2022-09-30T22:21:15.704Z,101130.00
2022-09-30T22:23:48.232Z,101170.16
2022-09-30T22:26:19.723Z,101152.84
2022-09-30T22:28:49.268Z,101166.38
2022-09-30T22:31:19.584Z,101166.09
2022-09-30T22:34:05.787Z,101163.13
2022-09-30T22:36:51.609Z,101170.31
2022-09-30T22:39:20.948Z,101170.50
2022-09-30T22:41:53.088Z,101153.28
2022-09-30T22:44:21.715Z,101171.75
2022-09-30T22:46:50.744Z,101181.03
2022-09-30T22:49:19.391Z,101179.75
2022-09-30T22:51:47.786Z,101177.53
2022-09-30T22:54:16.056Z,101175.41
2022-09-30T22:56:44.854Z,101178.22
2022-09-30T22:59:14.495Z,101174.25
2022-09-30T23:01:44.396Z,101174.81
2022-09-30T23:04:14.859Z,101173.13
2022-09-30T23:06:43.646Z,101171.03
2022-09-30T23:09:11.982Z,101177.34
2022-09-30T23:11:42.458Z,101182.41
2022-09-30T23:14:12.026Z,101181.25
2022-09-30T23:16:42.890Z,101182.38
2022-09-30T23:19:11.526Z,101182.91
2022-09-30T23:21:39.655Z,101201.19
2022-09-30T23:24:08.518Z,101203.94
2022-09-30T23:26:37.287Z,101205.44
2022-09-30T23:29:07.375Z,101209.50
2022-09-30T23:31:36.061Z,101207.00
2022-09-30T23:34:06.564Z,101196.50
2022-09-30T23:36:36.734Z,101190.19
2022-09-30T23:39:09.227Z,101207.97
2022-09-30T23:41:37.848Z,101197.97
2022-09-30T23:44:06.803Z,101197.69
2022-09-30T23:46:35.089Z,101196.28
2022-09-30T23:49:03.210Z,101197.41
2022-09-30T23:51:34.404Z,101192.91
2022-09-30T23:54:03.152Z,101199.94
2022-09-30T23:56:32.209Z,101203.88
2022-09-30T23:59:00.562Z,101195.13
